CLMO2: North Canadian River

Data processed at Tue Mar 26 2019 23:44


All information presented herein is the property of the government of the United States of America and may be revised or deleted at any time without prior notice.
Dissemination of this information without the expressed written consent of the Public Affairs Office, Tulsa District U.S. Army Corps of Engineers is strictly prohibited.
These data are gathered electronically and, as presented, have not undergone any form of quality control. These data are not guaranteed to be valid or correct.
Go to home page.
Go to station list.
Go to home page.

Upstream stations:

Downstream station:
Previous Day
Next Day
Current Day
    
SHEF ID:       CLMO2     North Canadian River near Calume
STATION TYPE:  
Regulating: Stage =    12.00, Flow =     1420

                STAGE  STAGE(2)  RIV-FLOW  WTR-TEMP   DIS-OXY        PH   CONDUCT  BAT-LOAD
                   ft        ft       cfs         F      mg/l        su   umho/cm      volt
              Ccp-Rev   Ccp-Rev   Ccp-Rev   Ccp-Rev   Ccp-Rev   Ccp-Rev   Ccp-Rev   Ccp-Rev
(US/Central)
03/26 00:00      7.15      ----       448     52.32     10.13      8.58      1173     12.81
03/26 01:00      7.13      ----       445     52.18     10.11      8.59      1176     12.81
03/26 02:00      7.13      ----       445     52.07     10.07      8.59      1176     12.73
03/26 03:00      7.12      ----       443     51.85     10.04      8.60      1177     12.73
03/26 04:00      7.12      ----       443     51.64     10.02      8.60      1179     12.73
03/26 05:00      7.11      ----       442     51.39     10.02      8.60      1181     12.65
03/26 06:00      7.11      ----       442     51.12     10.04      8.61      1182     12.65
03/26 07:00      7.11      ----       442     50.90     10.00      8.61      1184     12.65
03/26 08:00      7.11      ----       442     50.68      9.99      8.61      1185     12.57
03/26 09:00      7.11      ----       442     50.50     10.12      8.61      1191     12.89
03/26 10:00      7.11      ----       442     50.56     10.17      8.61      1192     13.53
03/26 11:00      ----      ----      ----      ----      ----      ----      ----      0.00
03/26 12:00      7.08      ----       437     51.51     10.37      8.62      1189     13.60
03/26 13:00      7.09      ----       439     52.23     10.48      8.62      1189     13.60
03/26 14:00      7.08      ----       437     53.02     10.61      8.62      1188     13.53
03/26 15:00      7.08      ----       437     53.78     10.76      8.62      1188     13.44
03/26 16:00      7.07      ----       436     54.37     10.76      8.61      1188     13.68
03/26 17:00      7.09      ----       439     54.79     10.44      8.61      1188     13.53
03/26 18:00      7.08      ----       437     54.93     10.79      8.61      1189     13.37
03/26 19:00      7.07      ----       436     54.79     10.68      8.61      1189     13.29
03/26 20:00      7.06      ----       434     54.52     10.65      8.61      1190     13.13
03/26 21:00      7.05      ----       433     54.23     10.54      8.61      1192     12.97
03/26 22:00      7.04      ----       431     54.00     10.44      8.61      1190     12.89
03/26 23:00      7.05      ----       433     53.82     10.38      8.62      1190     12.81